Aérodrome :
LOGIN :

S'inscrire | Disclaimer

   EN    FR    IT 

 










Légende :    VFR   VFR Marginal   IFR   IFR Intensif   IFR Très Intensif
Visi : 
Plafond : 
>= 8 km
>= 3000ft
5 à 8 km
1000 à 3000 ft
1500m à 5 km
500 à 1000 ft
800 à 1500m
200 à 500 ft
< 800m
< 200 ft
Symboles :   Orages  Brouillard  Fortes neiges  Fortes précipitations  Vent > 20 kt
SIGMETs :   Divers  Orages  Givrage  Turbulence  Onde Orograph.  Cendres Volcan.






- Altitude de l'aérodrome : 20 ft


EBFN - Koksijde

DERNIER METAR :
  • 240055Z AUTO VRB01KT 1300 BR OVC005/// 03/03 Q1026 AMB

METARs EXPIRÉS :
  • 240025Z AUTO 16004KT 1300 BR OVC005/// 03/02 Q1026 AMB
  • 232355Z AUTO 13004KT 1400 BR OVC007/// 04/02 Q1026 AMB
  • 232325Z AUTO 12003KT 1400 BR OVC007/// 04/02 Q1026 AMB
  • 232255Z AUTO 10003KT 1400 BR OVC008/// 04/02 Q1026 AMB

TAF TAF EBFN
Valide du 23 à 19h jusqu'au 24 à 07h UTC


231541Z 2319/2407 09005KT 7000 BKN016
BECMG 2323/2401 VRB03KT 6000 BKN012
BECMG 2401/2403 3000 BR OVC004
BECMG 2403/2405 0800 FG OVC002
PROB40
TEMPO 2404/2407 0300 FZFG OVC001



MET'MAP, la Météo Aéronautique d'un coup d'oeil ! - Copyright ORBIFLY Décembre 2007 - Disclaimer

ORBIFLY MET'MAP TEAM :

Programmation & Développement : Alexandra Zaïnal
Sur une idée originale de : Baudouin d'Aumeries
Assistance à la programmation : Marc-Olivier Méhu
Soutien technique & logistique : Manuel Goepfert

Contact : metmap@orbifly.com




SOURCES & CREDITS :

   NOAA